Time;durP1;ratioP1;P1;durP2;ratioP2;P2;SDS_P1;SDS_P2;PMS_P1;PMS_P2;Temp;Humidity;BMP_temperature;BMP_pressure;BME280_temperature;BME280_humidity;BME280_pressure;Samples;Min_cycle;Max_cycle;Signal;HPM_P1;HPM_P2
2022/04/25 00:01:14;;;;;;;46.95;12.52;;;;;;;;;;8303145;28;20042;-82
2022/04/25 00:05:17;;;;;;;33.90;13.25;;;;;;;;;;8303472;28;20053;-82
2022/04/25 00:09:19;;;;;;;22.58;9.65;;;;;;;;;;8302569;28;20046;-83
2022/04/25 00:13:22;;;;;;;16.88;7.30;;;;;;;;;;8303198;28;20053;-81
2022/04/25 00:17:26;;;;;;;12.50;7.00;;;;;;;;;;8303112;28;20413;-82
2022/04/25 00:21:29;;;;;;;15.57;6.72;;;;;;;;;;8302398;28;20061;-82
2022/04/25 00:25:32;;;;;;;21.48;8.27;;;;;;;;;;8302400;28;20041;-81
2022/04/25 00:29:34;;;;;;;20.73;9.73;;;;;;;;;;8302803;28;20049;-83
2022/04/25 00:33:38;;;;;;;20.40;9.63;;;;;;;;;;8302571;28;20379;-83
2022/04/25 00:37:41;;;;;;;17.92;8.02;;;;;;;;;;8302014;28;20547;-81
2022/04/25 00:41:44;;;;;;;17.17;7.93;;;;;;;;;;8301910;28;20054;-82
2022/04/25 00:45:47;;;;;;;23.90;7.90;;;;;;;;;;8301751;28;20048;-83
2022/04/25 00:49:51;;;;;;;13.60;7.65;;;;;;;;;;8302079;28;20042;-83
2022/04/25 00:53:54;;;;;;;20.08;9.13;;;;;;;;;;8301541;28;20410;-83
2022/04/25 00:57:56;;;;;;;41.38;11.18;;;;;;;;;;8301265;28;20049;-82
2022/04/25 01:01:59;;;;;;;28.70;13.15;;;;;;;;;;8301144;28;20053;-82
2022/04/25 01:06:03;;;;;;;32.42;12.73;;;;;;;;;;8301181;28;20110;-83
2022/04/25 01:10:08;;;;;;;57.85;13.15;;;;;;;;;;8301067;28;20050;-83
2022/04/25 01:14:15;;;;;;;50.40;13.00;;;;;;;;;;8300891;28;20042;-83
2022/04/25 01:18:18;;;;;;;61.58;13.23;;;;;;;;;;8300925;28;20049;-82
2022/04/25 01:22:28;;;;;;;81.93;14.88;;;;;;;;;;8300565;28;20107;-82
2022/04/25 01:30:52;;;;;;;51.33;12.15;;;;;;;;;;8300402;28;20042;-82
2022/04/25 01:34:55;;;;;;;65.88;12.15;;;;;;;;;;8300662;28;20050;-82
2022/04/25 01:38:58;;;;;;;84.63;12.18;;;;;;;;;;8300026;28;20057;-82
2022/04/25 01:43:02;;;;;;;122.03;14.93;;;;;;;;;;8299958;28;20054;-83
2022/04/25 01:47:06;;;;;;;76.20;14.88;;;;;;;;;;8299853;28;20057;-82
2022/04/25 01:51:09;;;;;;;102.40;15.20;;;;;;;;;;8299658;28;20042;-82
2022/04/25 01:55:12;;;;;;;91.22;16.45;;;;;;;;;;8299644;28;20046;-82
2022/04/25 01:59:16;;;;;;;69.68;15.10;;;;;;;;;;8299980;28;20594;-82
2022/04/25 02:03:19;;;;;;;114.28;15.55;;;;;;;;;;8299919;28;20057;-82
2022/04/25 02:07:21;;;;;;;107.05;14.85;;;;;;;;;;8299339;28;20084;-84
2022/04/25 02:11:24;;;;;;;110.22;15.07;;;;;;;;;;8298907;28;20054;-83
2022/04/25 02:15:28;;;;;;;93.03;13.18;;;;;;;;;;8299507;28;20046;-83
2022/04/25 02:19:35;;;;;;;102.78;11.20;;;;;;;;;;8298772;28;20046;-82
2022/04/25 02:23:39;;;;;;;86.03;10.88;;;;;;;;;;8299354;28;20054;-82
2022/04/25 02:27:41;;;;;;;82.93;10.80;;;;;;;;;;8298718;28;20129;-82
2022/04/25 02:31:45;;;;;;;63.60;10.60;;;;;;;;;;8298657;28;20060;-82
2022/04/25 02:35:49;;;;;;;65.55;22.10;;;;;;;;;;8298534;28;20057;-82
2022/04/25 02:39:52;;;;;;;104.60;29.23;;;;;;;;;;8298371;28;20054;-82
2022/04/25 02:43:54;;;;;;;49.53;18.45;;;;;;;;;;8298321;28;20056;-81
2022/04/25 02:47:59;;;;;;;43.25;14.95;;;;;;;;;;8298692;28;20072;-82
2022/04/25 02:52:01;;;;;;;31.13;10.88;;;;;;;;;;8298198;28;20461;-83
2022/04/25 02:56:05;;;;;;;28.92;9.55;;;;;;;;;;8297918;28;20045;-82
2022/04/25 03:00:08;;;;;;;33.75;9.35;;;;;;;;;;8297882;28;20045;-83
2022/04/25 03:04:13;;;;;;;30.65;9.55;;;;;;;;;;8298337;28;20232;-83
2022/04/25 03:08:18;;;;;;;21.05;9.02;;;;;;;;;;8297841;28;20092;-81
2022/04/25 03:12:20;;;;;;;29.52;10.57;;;;;;;;;;8297783;28;20437;-83
2022/04/25 03:16:23;;;;;;;22.25;9.25;;;;;;;;;;8298271;28;20046;-82
2022/04/25 03:20:27;;;;;;;21.90;8.77;;;;;;;;;;8299242;28;20053;-81
2022/04/25 03:24:30;;;;;;;27.38;9.60;;;;;;;;;;8304292;28;20046;-82
2022/04/25 03:28:33;;;;;;;30.17;10.18;;;;;;;;;;8304112;28;20057;-82
2022/04/25 03:32:35;;;;;;;45.53;13.13;;;;;;;;;;8304114;28;20079;-81
2022/04/25 03:36:39;;;;;;;30.25;11.07;;;;;;;;;;8297691;28;20045;-82
2022/04/25 03:40:44;;;;;;;36.88;12.02;;;;;;;;;;8296411;28;20137;-84
2022/04/25 03:44:47;;;;;;;50.83;10.70;;;;;;;;;;8295862;28;20084;-82
2022/04/25 03:48:50;;;;;;;43.97;11.57;;;;;;;;;;8302306;28;20125;-83
2022/04/25 03:52:54;;;;;;;23.00;9.25;;;;;;;;;;8299985;28;20060;-82
2022/04/25 03:57:12;;;;;;;33.28;9.38;;;;;;;;;;8298377;28;20482;-81
2022/04/25 04:01:15;;;;;;;40.75;9.75;;;;;;;;;;8295116;28;20038;-81
2022/04/25 04:05:18;;;;;;;35.55;10.43;;;;;;;;;;8300271;28;20049;-83
2022/04/25 04:13:41;;;;;;;32.50;11.10;;;;;;;;;;8299179;28;20049;-81
2022/04/25 04:17:45;;;;;;;42.25;16.48;;;;;;;;;;8302676;28;20049;-82
2022/04/25 04:21:47;;;;;;;40.28;15.70;;;;;;;;;;8298867;28;20050;-83
2022/04/25 04:25:52;;;;;;;47.90;16.55;;;;;;;;;;8287273;28;20046;-82
2022/04/25 04:29:54;;;;;;;36.90;13.13;;;;;;;;;;8298304;28;20053;-83
2022/04/25 04:33:58;;;;;;;47.80;23.40;;;;;;;;;;8300580;28;20064;-84
2022/04/25 04:38:01;;;;;;;37.40;18.23;;;;;;;;;;8300120;28;20044;-84
2022/04/25 04:42:06;;;;;;;29.20;13.40;;;;;;;;;;8299882;28;20100;-83
2022/04/25 04:46:09;;;;;;;32.58;14.75;;;;;;;;;;8297092;28;20149;-84
2022/04/25 04:50:14;;;;;;;34.92;14.77;;;;;;;;;;8301041;28;20075;-83
2022/04/25 04:54:17;;;;;;;51.20;24.10;;;;;;;;;;8301619;28;20113;-84
2022/04/25 04:58:21;;;;;;;41.08;17.83;;;;;;;;;;8301560;28;20053;-83
2022/04/25 05:02:24;;;;;;;31.02;14.25;;;;;;;;;;8296646;28;20042;-83
2022/04/25 05:06:28;;;;;;;19.15;11.15;;;;;;;;;;8294180;28;20041;-84
2022/04/25 05:10:30;;;;;;;15.82;8.98;;;;;;;;;;8300856;28;20054;-82
2022/04/25 05:14:35;;;;;;;16.77;10.05;;;;;;;;;;8300912;28;20069;-83
2022/04/25 05:18:37;;;;;;;17.55;11.05;;;;;;;;;;8300770;28;20417;-82
2022/04/25 05:22:44;;;;;;;14.85;9.75;;;;;;;;;;8300616;28;20076;-82
2022/04/25 05:26:48;;;;;;;19.70;12.57;;;;;;;;;;8300633;28;20137;-83
2022/04/25 05:30:52;;;;;;;20.23;11.38;;;;;;;;;;8300488;28;20050;-82
2022/04/25 05:34:55;;;;;;;21.10;12.77;;;;;;;;;;8300255;28;20096;-83
2022/04/25 05:38:58;;;;;;;22.00;13.68;;;;;;;;;;8298639;28;20046;-82
2022/04/25 05:43:04;;;;;;;25.35;14.40;;;;;;;;;;8297190;28;20133;-81
2022/04/25 05:47:09;;;;;;;23.73;13.68;;;;;;;;;;8298385;28;20042;-83
2022/04/25 05:55:32;;;;;;;24.95;14.45;;;;;;;;;;8300210;28;20447;-83
2022/04/25 05:59:35;;;;;;;24.55;15.13;;;;;;;;;;8299615;28;20515;-82
2022/04/25 06:03:39;;;;;;;30.35;17.15;;;;;;;;;;8299832;28;20137;-82
2022/04/25 06:07:43;;;;;;;26.70;14.82;;;;;;;;;;8299261;28;20096;-83
2022/04/25 06:11:46;;;;;;;24.67;15.30;;;;;;;;;;8299139;28;20506;-83
2022/04/25 06:15:48;;;;;;;24.67;15.13;;;;;;;;;;8299103;28;20050;-83
2022/04/25 06:19:54;;;;;;;25.73;15.52;;;;;;;;;;8299110;28;20395;-84
2022/04/25 06:23:59;;;;;;;26.00;15.75;;;;;;;;;;8299314;28;20053;-83
2022/04/25 06:28:02;;;;;;;24.30;14.43;;;;;;;;;;8299326;28;20402;-83
2022/04/25 06:32:05;;;;;;;28.60;17.13;;;;;;;;;;8298700;28;20101;-83
2022/04/25 06:36:10;;;;;;;30.67;17.92;;;;;;;;;;8299003;28;20050;-84
2022/04/25 06:40:13;;;;;;;35.22;21.27;;;;;;;;;;8298447;28;20053;-82
2022/04/25 06:44:16;;;;;;;41.17;25.10;;;;;;;;;;8298882;28;20045;-82
2022/04/25 06:48:18;;;;;;;33.28;23.02;;;;;;;;;;8298210;28;20096;-83
2022/04/25 06:52:23;;;;;;;40.03;22.48;;;;;;;;;;8298567;28;20045;-83
2022/04/25 06:56:26;;;;;;;37.10;22.75;;;;;;;;;;8298056;28;20564;-82
2022/04/25 07:00:29;;;;;;;43.25;22.40;;;;;;;;;;8298020;28;20049;-84
2022/04/25 07:04:31;;;;;;;34.28;21.33;;;;;;;;;;8298272;28;20050;-83
2022/04/25 07:08:35;;;;;;;38.72;22.52;;;;;;;;;;8297947;28;20050;-83
2022/04/25 07:12:38;;;;;;;31.88;21.02;;;;;;;;;;8297735;28;20068;-83
2022/04/25 07:16:44;;;;;;;32.63;18.58;;;;;;;;;;8297769;28;20104;-84
2022/04/25 07:20:47;;;;;;;34.03;19.90;;;;;;;;;;8297792;28;20048;-83
2022/04/25 07:29:11;;;;;;;;;;;;;;;;;;8298068;28;20046;-82
2022/04/25 07:33:14;;;;;;;33.90;19.42;;;;;;;;;;8297569;28;19925;-82
2022/04/25 07:37:17;;;;;;;27.77;17.23;;;;;;;;;;8297427;28;20053;-82
2022/04/25 07:41:22;;;;;;;27.73;16.35;;;;;;;;;;8297360;28;20129;-82
2022/04/25 07:45:24;;;;;;;26.40;17.30;;;;;;;;;;8297326;28;20076;-81
2022/04/25 07:49:28;;;;;;;25.10;16.35;;;;;;;;;;8297900;28;20042;-81
2022/04/25 07:53:31;;;;;;;19.30;14.63;;;;;;;;;;8297251;28;20046;-83
2022/04/25 07:57:36;;;;;;;25.25;15.70;;;;;;;;;;8297239;28;20050;-85
2022/04/25 08:01:39;;;;;;;26.17;15.50;;;;;;;;;;8297079;28;20453;-83
2022/04/25 08:05:42;;;;;;;24.23;14.13;;;;;;;;;;8297890;28;20050;-82
2022/04/25 08:09:45;;;;;;;26.23;14.43;;;;;;;;;;8302773;28;20058;-81
2022/04/25 08:18:12;;;;;;;20.58;13.55;;;;;;;;;;8302826;28;20092;-82
2022/04/25 08:22:15;;;;;;;21.90;12.23;;;;;;;;;;8302560;28;20042;-85
2022/04/25 08:26:18;;;;;;;19.05;12.20;;;;;;;;;;8302540;28;20107;-81
2022/04/25 08:30:23;;;;;;;16.75;10.88;;;;;;;;;;8301436;28;20058;-82
2022/04/25 08:34:25;;;;;;;15.45;10.27;;;;;;;;;;8302341;28;20605;-80
2022/04/25 08:38:29;;;;;;;11.85;8.52;;;;;;;;;;8302731;28;20426;-80
2022/04/25 08:42:33;;;;;;;18.80;10.85;;;;;;;;;;8302250;28;20144;-81
2022/04/25 08:46:41;;;;;;;16.55;11.43;;;;;;;;;;8301952;28;20052;-81
2022/04/25 08:50:47;;;;;;;18.20;11.88;;;;;;;;;;8293585;28;20057;-82
2022/04/25 08:54:52;;;;;;;15.35;10.20;;;;;;;;;;8264666;28;20105;-82
2022/04/25 08:58:56;;;;;;;16.08;11.50;;;;;;;;;;8267648;28;20550;-82
2022/04/25 09:03:01;;;;;;;12.73;9.95;;;;;;;;;;8264406;28;20062;-82
2022/04/25 09:07:04;;;;;;;22.65;12.32;;;;;;;;;;8264074;28;20050;-82
2022/04/25 09:15:32;;;;;;;12.60;8.45;;;;;;;;;;8263145;28;20046;-82
2022/04/25 09:19:42;;;;;;;11.02;8.18;;;;;;;;;;8263065;28;20054;-82
2022/04/25 09:23:49;;;;;;;16.02;8.77;;;;;;;;;;8263912;28;20093;-83
2022/04/25 09:28:11;;;;;;;15.23;9.00;;;;;;;;;;8264180;28;20081;-82
2022/04/25 09:32:14;;;;;;;20.25;10.40;;;;;;;;;;8263342;28;20057;-81
2022/04/25 09:36:21;;;;;;;13.32;8.80;;;;;;;;;;8263260;28;20050;-81
2022/04/25 09:40:28;;;;;;;11.75;7.95;;;;;;;;;;8263094;28;20085;-81
2022/04/25 09:44:54;;;;;;;9.98;7.75;;;;;;;;;;8263423;28;20410;-82
2022/04/25 09:49:05;;;;;;;9.98;6.50;;;;;;;;;;8263105;28;20450;-81
2022/04/25 09:53:10;;;;;;;12.77;8.00;;;;;;;;;;8262670;28;20069;-81
2022/04/25 09:57:31;;;;;;;12.00;7.78;;;;;;;;;;8262651;28;20297;-81
2022/04/25 10:01:39;;;;;;;10.25;7.35;;;;;;;;;;8262583;28;20475;-82
2022/04/25 10:05:45;;;;;;;12.63;7.78;;;;;;;;;;8262084;28;20057;-80
2022/04/25 10:09:52;;;;;;;13.00;7.45;;;;;;;;;;8262235;28;20097;-81
2022/04/25 10:13:56;;;;;;;12.73;7.13;;;;;;;;;;8262100;28;20046;-81
2022/04/25 10:18:02;;;;;;;10.82;6.80;;;;;;;;;;8260995;28;20058;-81
2022/04/25 10:22:06;;;;;;;13.23;7.28;;;;;;;;;;8262152;28;20414;-81
2022/04/25 10:26:11;;;;;;;12.82;7.30;;;;;;;;;;8262186;28;20097;-81
2022/04/25 10:30:18;;;;;;;11.63;6.60;;;;;;;;;;8261326;28;20554;-81
2022/04/25 10:34:47;;;;;;;16.67;7.60;;;;;;;;;;8261297;28;20069;-81
2022/04/25 10:38:53;;;;;;;10.00;6.57;;;;;;;;;;8261918;28;20513;-79
2022/04/25 10:47:59;;;;;;;16.10;7.30;;;;;;;;;;8261397;28;20475;-80
2022/04/25 10:52:08;;;;;;;11.57;7.05;;;;;;;;;;8261520;28;20070;-80
2022/04/25 10:56:14;;;;;;;11.65;6.78;;;;;;;;;;8261404;28;20465;-80
2022/04/25 11:00:48;;;;;;;9.68;6.30;;;;;;;;;;8260673;28;20057;-80
2022/04/25 11:05:34;;;;;;;9.88;6.18;;;;;;;;;;8281835;28;20054;-79
2022/04/25 11:09:46;;;;;;;9.48;5.88;;;;;;;;;;8269276;28;20520;-79
2022/04/25 11:14:20;;;;;;;16.85;6.75;;;;;;;;;;8293617;28;20085;-80
2022/04/25 11:18:33;;;;;;;9.93;6.57;;;;;;;;;;8293282;28;20050;-79
2022/04/25 11:22:52;;;;;;;;;;;;;;;;;;8293838;28;20054;-80
2022/04/25 11:26:59;;;;;;;16.00;8.55;;;;;;;;;;8293155;28;19921;-79
2022/04/25 11:31:23;;;;;;;8.48;5.40;;;;;;;;;;8292563;28;20053;-80
2022/04/25 11:35:29;;;;;;;6.95;5.00;;;;;;;;;;8265546;28;20050;-79
2022/04/25 11:43:58;;;;;;;7.35;5.15;;;;;;;;;;8297981;28;20058;-81
2022/04/25 11:48:03;;;;;;;6.28;4.32;;;;;;;;;;8299193;28;20500;-80
2022/04/25 11:52:15;;;;;;;6.80;4.63;;;;;;;;;;8298449;28;20057;-82
2022/04/25 11:56:21;;;;;;;8.27;4.72;;;;;;;;;;8298726;28;20060;-82
2022/04/25 12:00:26;;;;;;;9.63;5.57;;;;;;;;;;8297290;28;20062;-82
2022/04/25 12:04:32;;;;;;;6.53;4.20;;;;;;;;;;8298883;28;20065;-82
2022/04/25 12:17:27;;;;;;;10.23;5.35;;;;;;;;;;8297788;28;20128;-82
2022/04/25 12:21:35;;;;;;;14.10;6.65;;;;;;;;;;8298360;28;20054;-82
2022/04/25 12:25:44;;;;;;;7.47;5.05;;;;;;;;;;8298080;28;20092;-82
2022/04/25 12:30:09;;;;;;;11.18;5.05;;;;;;;;;;8297570;28;20042;-82
2022/04/25 12:34:19;;;;;;;9.27;5.63;;;;;;;;;;8297600;28;20115;-82
2022/04/25 12:38:38;;;;;;;9.38;5.45;;;;;;;;;;8297624;28;20076;-82
2022/04/25 12:42:51;;;;;;;8.05;4.88;;;;;;;;;;8297077;28;20062;-80
2022/04/25 12:47:03;;;;;;;11.18;5.65;;;;;;;;;;8294981;28;20133;-80
2022/04/25 12:51:06;;;;;;;8.38;4.60;;;;;;;;;;8294772;28;20137;-80
2022/04/25 12:55:10;;;;;;;6.22;4.28;;;;;;;;;;8296009;28;20053;-81
2022/04/25 12:59:25;;;;;;;7.05;4.38;;;;;;;;;;8292823;28;20136;-82
2022/04/25 13:03:32;;;;;;;7.50;4.68;;;;;;;;;;8295593;28;20050;-80
2022/04/25 13:07:38;;;;;;;7.35;4.63;;;;;;;;;;8284911;28;20042;-80
2022/04/25 13:11:42;;;;;;;12.23;6.97;;;;;;;;;;8292981;28;20474;-82
2022/04/25 13:15:50;;;;;;;8.35;5.63;;;;;;;;;;8296284;28;20421;-81
2022/04/25 13:19:53;;;;;;;8.32;5.65;;;;;;;;;;8294168;28;20050;-82
2022/04/25 13:23:56;;;;;;;9.88;6.65;;;;;;;;;;8296004;28;20056;-82
2022/04/25 13:27:59;;;;;;;11.05;7.25;;;;;;;;;;8295617;28;20421;-82
2022/04/25 13:32:05;;;;;;;12.70;9.10;;;;;;;;;;8295917;28;20125;-82
2022/04/25 13:36:09;;;;;;;11.35;8.10;;;;;;;;;;8295824;28;20055;-81
2022/04/25 13:40:13;;;;;;;13.98;8.82;;;;;;;;;;8295454;28;20066;-81
2022/04/25 13:44:15;;;;;;;13.23;10.27;;;;;;;;;;8295458;28;20062;-81
2022/04/25 13:48:20;;;;;;;13.40;9.23;;;;;;;;;;8295459;28;20045;-80
2022/04/25 13:52:24;;;;;;;14.77;10.02;;;;;;;;;;8295219;28;20041;-80
2022/04/25 13:56:28;;;;;;;15.23;10.32;;;;;;;;;;8293752;28;20613;-81
2022/04/25 14:00:31;;;;;;;15.45;10.73;;;;;;;;;;8295109;28;20482;-80
2022/04/25 14:04:36;;;;;;;13.93;10.63;;;;;;;;;;8294730;28;20437;-82
2022/04/25 14:08:39;;;;;;;13.05;9.93;;;;;;;;;;8294450;28;20056;-82
2022/04/25 14:12:43;;;;;;;15.65;10.82;;;;;;;;;;8294544;28;20457;-81
2022/04/25 14:16:46;;;;;;;13.52;10.60;;;;;;;;;;8291800;28;20053;-80
2022/04/25 14:20:51;;;;;;;15.80;11.35;;;;;;;;;;8294811;28;20046;-81
2022/04/25 14:24:54;;;;;;;15.10;11.68;;;;;;;;;;8277637;28;20084;-83
2022/04/25 14:29:00;;;;;;;18.80;13.48;;;;;;;;;;8249544;28;20061;-83
2022/04/25 14:33:08;;;;;;;19.25;12.90;;;;;;;;;;8292792;28;20538;-84
2022/04/25 14:37:42;;;;;;;16.13;11.73;;;;;;;;;;8293567;28;20140;-84
2022/04/25 14:46:26;;;;;;;19.60;13.73;;;;;;;;;;8289867;28;20124;-84
2022/04/25 14:55:25;;;;;;;20.90;13.80;;;;;;;;;;8257588;28;20524;-84
2022/04/25 14:59:36;;;;;;;21.17;15.85;;;;;;;;;;8296048;28;20052;-83
2022/04/25 15:03:46;;;;;;;23.35;16.40;;;;;;;;;;8292621;28;20077;-83
2022/04/25 15:07:53;;;;;;;19.83;13.82;;;;;;;;;;8298102;28;20466;-84
2022/04/25 15:12:04;;;;;;;25.23;15.40;;;;;;;;;;8294964;28;20056;-83
2022/04/25 15:16:22;;;;;;;28.85;17.00;;;;;;;;;;8273456;28;20069;-83
2022/04/25 15:20:45;;;;;;;24.52;14.60;;;;;;;;;;8272610;28;20066;-84
2022/04/25 15:25:24;;;;;;;19.05;12.20;;;;;;;;;;8272531;28;20065;-84
2022/04/25 15:30:14;;;;;;;18.98;11.40;;;;;;;;;;8299554;28;20042;-84
2022/04/25 15:34:30;;;;;;;15.95;10.88;;;;;;;;;;8303540;28;20477;-85
2022/04/25 15:38:46;;;;;;;20.55;12.60;;;;;;;;;;8304073;28;20038;-84
2022/04/25 15:43:20;;;;;;;16.45;11.45;;;;;;;;;;8303923;28;20046;-84
2022/04/25 15:52:51;;;;;;;15.80;10.70;;;;;;;;;;8299893;28;20034;-83
2022/04/25 16:01:47;;;;;;;16.85;11.50;;;;;;;;;;8301421;28;20506;-83
2022/04/25 16:05:59;;;;;;;15.20;10.70;;;;;;;;;;8296845;28;20428;-84
2022/04/25 16:10:08;;;;;;;15.23;8.98;;;;;;;;;;8300347;28;20057;-83
2022/04/25 16:14:15;;;;;;;12.93;8.73;;;;;;;;;;8302956;28;20046;-84
2022/04/25 16:18:32;;;;;;;15.45;8.85;;;;;;;;;;8302789;28;20053;-84
2022/04/25 16:22:58;;;;;;;14.07;9.00;;;;;;;;;;8302745;28;20104;-83
2022/04/25 16:27:11;;;;;;;13.00;8.23;;;;;;;;;;8301689;28;20042;-83
2022/04/25 16:31:31;;;;;;;11.63;8.05;;;;;;;;;;8296586;28;20125;-84
2022/04/25 16:35:44;;;;;;;13.05;7.22;;;;;;;;;;8294963;28;20136;-84
2022/04/25 16:39:55;;;;;;;11.57;8.65;;;;;;;;;;8301896;28;20096;-84
2022/04/25 16:44:06;;;;;;;39.15;7.18;;;;;;;;;;8301959;28;20042;-83
2022/04/25 16:48:16;;;;;;;12.38;7.22;;;;;;;;;;8301895;28;20088;-83
2022/04/25 16:52:24;;;;;;;14.30;7.60;;;;;;;;;;8301862;28;20050;-83
2022/04/25 16:56:36;;;;;;;10.48;7.13;;;;;;;;;;8301714;28;20049;-84
2022/04/25 17:00:45;;;;;;;11.32;6.68;;;;;;;;;;8301564;28;20103;-83
2022/04/25 17:05:02;;;;;;;9.82;6.32;;;;;;;;;;8301368;28;20054;-83
2022/04/25 17:09:13;;;;;;;12.63;6.45;;;;;;;;;;8301087;28;20050;-83
2022/04/25 17:13:32;;;;;;;8.38;5.95;;;;;;;;;;8268238;28;20057;-84
2022/04/25 17:17:43;;;;;;;12.02;6.50;;;;;;;;;;8245845;28;20122;-83
2022/04/25 17:22:06;;;;;;;9.15;5.88;;;;;;;;;;8261637;28;20072;-83
2022/04/25 17:26:18;;;;;;;10.20;6.80;;;;;;;;;;8268169;28;20073;-83
2022/04/25 17:30:34;;;;;;;;;;;;;;;;;;8268497;28;20513;-83
